sensor_id;sensor_type;location;lat;lon;timestamp;P1;durP1;ratioP1;P2;durP2;ratioP2
76636;SDS011;65532;52.124;5.480;2023-04-22T00:00:53;4.32;;;3.15;;
76636;SDS011;65532;52.124;5.480;2023-04-22T00:03:20;5.68;;;3.00;;
76636;SDS011;65532;52.124;5.480;2023-04-22T00:05:49;6.97;;;4.28;;
76636;SDS011;65532;52.124;5.480;2023-04-22T00:08:16;7.68;;;4.25;;
76636;SDS011;65532;52.124;5.480;2023-04-22T00:10:42;8.35;;;4.93;;
76636;SDS011;65532;52.124;5.480;2023-04-22T00:13:09;8.65;;;4.07;;
76636;SDS011;65532;52.124;5.480;2023-04-22T00:15:35;7.90;;;5.03;;
76636;SDS011;65532;52.124;5.480;2023-04-22T00:18:02;8.13;;;3.80;;
76636;SDS011;65532;52.124;5.480;2023-04-22T00:20:29;6.45;;;2.97;;
76636;SDS011;65532;52.124;5.480;2023-04-22T00:22:57;7.97;;;4.05;;
76636;SDS011;65532;52.124;5.480;2023-04-22T00:25:24;8.38;;;3.40;;
76636;SDS011;65532;52.124;5.480;2023-04-22T00:27:50;8.02;;;5.70;;
76636;SDS011;65532;52.124;5.480;2023-04-22T00:30:16;9.02;;;5.00;;
76636;SDS011;65532;52.124;5.480;2023-04-22T00:32:43;6.20;;;2.85;;
76636;SDS011;65532;52.124;5.480;2023-04-22T00:35:09;5.35;;;2.70;;
76636;SDS011;65532;52.124;5.480;2023-04-22T00:37:36;6.97;;;3.33;;
76636;SDS011;65532;52.124;5.480;2023-04-22T00:40:02;7.03;;;4.97;;
76636;SDS011;65532;52.124;5.480;2023-04-22T00:42:29;5.78;;;3.45;;
76636;SDS011;65532;52.124;5.480;2023-04-22T00:44:56;6.28;;;3.97;;
76636;SDS011;65532;52.124;5.480;2023-04-22T00:47:23;5.13;;;2.95;;
76636;SDS011;65532;52.124;5.480;2023-04-22T00:49:52;9.32;;;5.90;;
76636;SDS011;65532;52.124;5.480;2023-04-22T00:52:19;7.25;;;4.57;;
76636;SDS011;65532;52.124;5.480;2023-04-22T00:54:46;7.40;;;5.03;;
76636;SDS011;65532;52.124;5.480;2023-04-22T00:57:14;7.38;;;4.13;;
76636;SDS011;65532;52.124;5.480;2023-04-22T00:59:42;7.18;;;3.90;;
76636;SDS011;65532;52.124;5.480;2023-04-22T01:02:09;5.30;;;2.65;;
76636;SDS011;65532;52.124;5.480;2023-04-22T01:04:37;4.90;;;3.42;;
76636;SDS011;65532;52.124;5.480;2023-04-22T01:07:04;5.03;;;2.55;;
76636;SDS011;65532;52.124;5.480;2023-04-22T01:09:31;6.75;;;2.20;;
76636;SDS011;65532;52.124;5.480;2023-04-22T01:11:58;4.68;;;2.22;;
76636;SDS011;65532;52.124;5.480;2023-04-22T01:14:24;6.28;;;3.97;;
76636;SDS011;65532;52.124;5.480;2023-04-22T01:16:51;5.05;;;3.10;;
76636;SDS011;65532;52.124;5.480;2023-04-22T01:19:21;5.63;;;3.28;;
76636;SDS011;65532;52.124;5.480;2023-04-22T01:21:49;6.82;;;4.70;;
76636;SDS011;65532;52.124;5.480;2023-04-22T01:24:17;7.40;;;5.50;;
76636;SDS011;65532;52.124;5.480;2023-04-22T01:26:44;4.97;;;3.50;;
76636;SDS011;65532;52.124;5.480;2023-04-22T01:29:11;4.75;;;2.92;;
76636;SDS011;65532;52.124;5.480;2023-04-22T01:31:38;3.60;;;2.50;;
76636;SDS011;65532;52.124;5.480;2023-04-22T01:34:05;27.58;;;4.32;;
76636;SDS011;65532;52.124;5.480;2023-04-22T01:36:32;12.30;;;2.75;;
76636;SDS011;65532;52.124;5.480;2023-04-22T01:38:59;13.27;;;3.10;;
76636;SDS011;65532;52.124;5.480;2023-04-22T01:41:25;5.03;;;2.08;;
76636;SDS011;65532;52.124;5.480;2023-04-22T01:43:52;23.08;;;4.05;;
76636;SDS011;65532;52.124;5.480;2023-04-22T01:46:19;34.78;;;4.13;;
76636;SDS011;65532;52.124;5.480;2023-04-22T01:48:46;31.90;;;4.72;;
76636;SDS011;65532;52.124;5.480;2023-04-22T01:51:17;24.38;;;4.18;;
76636;SDS011;65532;52.124;5.480;2023-04-22T01:53:47;44.83;;;4.68;;
76636;SDS011;65532;52.124;5.480;2023-04-22T01:56:14;3.55;;;1.60;;
76636;SDS011;65532;52.124;5.480;2023-04-22T01:58:41;4.15;;;2.58;;
76636;SDS011;65532;52.124;5.480;2023-04-22T02:01:09;10.00;;;1.73;;
76636;SDS011;65532;52.124;5.480;2023-04-22T02:03:36;5.20;;;1.70;;
76636;SDS011;65532;52.124;5.480;2023-04-22T02:06:03;3.00;;;1.17;;
76636;SDS011;65532;52.124;5.480;2023-04-22T02:08:30;3.00;;;1.73;;
76636;SDS011;65532;52.124;5.480;2023-04-22T02:10:56;2.83;;;1.20;;
76636;SDS011;65532;52.124;5.480;2023-04-22T02:13:24;7.78;;;1.73;;
76636;SDS011;65532;52.124;5.480;2023-04-22T02:15:51;16.27;;;2.88;;
76636;SDS011;65532;52.124;5.480;2023-04-22T02:18:17;13.20;;;4.22;;
76636;SDS011;65532;52.124;5.480;2023-04-22T02:20:44;7.32;;;2.78;;
76636;SDS011;65532;52.124;5.480;2023-04-22T02:23:11;4.28;;;2.55;;
76636;SDS011;65532;52.124;5.480;2023-04-22T02:25:37;4.53;;;1.88;;
76636;SDS011;65532;52.124;5.480;2023-04-22T02:28:04;4.57;;;1.60;;
76636;SDS011;65532;52.124;5.480;2023-04-22T02:30:31;29.30;;;3.65;;
76636;SDS011;65532;52.124;5.480;2023-04-22T02:32:57;6.40;;;1.92;;
76636;SDS011;65532;52.124;5.480;2023-04-22T02:35:25;7.72;;;2.65;;
76636;SDS011;65532;52.124;5.480;2023-04-22T02:37:51;3.42;;;1.33;;
76636;SDS011;65532;52.124;5.480;2023-04-22T02:40:19;17.88;;;2.50;;
76636;SDS011;65532;52.124;5.480;2023-04-22T02:42:46;12.05;;;2.25;;
76636;SDS011;65532;52.124;5.480;2023-04-22T02:45:13;20.98;;;2.78;;
76636;SDS011;65532;52.124;5.480;2023-04-22T02:47:41;10.65;;;2.92;;
76636;SDS011;65532;52.124;5.480;2023-04-22T02:50:08;21.88;;;2.33;;
76636;SDS011;65532;52.124;5.480;2023-04-22T02:52:35;5.00;;;1.45;;
76636;SDS011;65532;52.124;5.480;2023-04-22T02:55:02;6.47;;;1.40;;
76636;SDS011;65532;52.124;5.480;2023-04-22T02:57:29;5.40;;;2.42;;
76636;SDS011;65532;52.124;5.480;2023-04-22T02:59:55;3.38;;;2.17;;
76636;SDS011;65532;52.124;5.480;2023-04-22T03:02:22;5.18;;;1.67;;
76636;SDS011;65532;52.124;5.480;2023-04-22T03:05:11;3.50;;;2.22;;
76636;SDS011;65532;52.124;5.480;2023-04-22T03:07:37;6.38;;;2.30;;
76636;SDS011;65532;52.124;5.480;2023-04-22T03:10:04;8.98;;;1.50;;
76636;SDS011;65532;52.124;5.480;2023-04-22T03:12:32;8.25;;;2.63;;
76636;SDS011;65532;52.124;5.480;2023-04-22T03:14:58;16.05;;;2.60;;
76636;SDS011;65532;52.124;5.480;2023-04-22T03:17:28;2.50;;;1.30;;
76636;SDS011;65532;52.124;5.480;2023-04-22T03:19:57;2.28;;;1.55;;
76636;SDS011;65532;52.124;5.480;2023-04-22T03:22:23;3.35;;;1.40;;
76636;SDS011;65532;52.124;5.480;2023-04-22T03:24:52;3.53;;;2.22;;
76636;SDS011;65532;52.124;5.480;2023-04-22T03:27:19;2.92;;;1.25;;
76636;SDS011;65532;52.124;5.480;2023-04-22T03:29:46;3.80;;;2.45;;
76636;SDS011;65532;52.124;5.480;2023-04-22T03:32:12;3.33;;;2.35;;
76636;SDS011;65532;52.124;5.480;2023-04-22T03:34:39;3.03;;;1.33;;
76636;SDS011;65532;52.124;5.480;2023-04-22T03:37:08;2.75;;;1.05;;
76636;SDS011;65532;52.124;5.480;2023-04-22T03:39:34;3.03;;;1.58;;
76636;SDS011;65532;52.124;5.480;2023-04-22T03:42:01;3.55;;;1.27;;
76636;SDS011;65532;52.124;5.480;2023-04-22T03:44:28;3.25;;;1.77;;
76636;SDS011;65532;52.124;5.480;2023-04-22T03:46:54;3.22;;;2.47;;
76636;SDS011;65532;52.124;5.480;2023-04-22T03:49:26;2.33;;;1.25;;
76636;SDS011;65532;52.124;5.480;2023-04-22T03:51:53;3.17;;;2.22;;
76636;SDS011;65532;52.124;5.480;2023-04-22T03:54:22;2.53;;;1.65;;
76636;SDS011;65532;52.124;5.480;2023-04-22T03:56:51;2.22;;;1.33;;
76636;SDS011;65532;52.124;5.480;2023-04-22T03:59:19;3.00;;;2.17;;
76636;SDS011;65532;52.124;5.480;2023-04-22T04:01:46;2.85;;;2.08;;
76636;SDS011;65532;52.124;5.480;2023-04-22T04:04:17;4.45;;;2.95;;
76636;SDS011;65532;52.124;5.480;2023-04-22T04:06:49;4.63;;;2.85;;
76636;SDS011;65532;52.124;5.480;2023-04-22T04:09:16;5.35;;;1.95;;
76636;SDS011;65532;52.124;5.480;2023-04-22T04:11:44;4.03;;;2.47;;
76636;SDS011;65532;52.124;5.480;2023-04-22T04:14:11;4.65;;;1.77;;
76636;SDS011;65532;52.124;5.480;2023-04-22T04:16:44;3.88;;;2.55;;
76636;SDS011;65532;52.124;5.480;2023-04-22T04:19:18;5.07;;;3.13;;
76636;SDS011;65532;52.124;5.480;2023-04-22T04:21:44;4.38;;;2.25;;
76636;SDS011;65532;52.124;5.480;2023-04-22T04:24:11;4.60;;;3.13;;
76636;SDS011;65532;52.124;5.480;2023-04-22T04:26:42;4.50;;;2.95;;
76636;SDS011;65532;52.124;5.480;2023-04-22T04:31:44;8.32;;;2.25;;
76636;SDS011;65532;52.124;5.480;2023-04-22T04:34:11;4.35;;;3.08;;
76636;SDS011;65532;52.124;5.480;2023-04-22T04:36:37;3.20;;;1.48;;
76636;SDS011;65532;52.124;5.480;2023-04-22T04:39:16;3.03;;;1.85;;
76636;SDS011;65532;52.124;5.480;2023-04-22T04:41:42;4.22;;;2.50;;
76636;SDS011;65532;52.124;5.480;2023-04-22T04:44:10;5.13;;;2.85;;
76636;SDS011;65532;52.124;5.480;2023-04-22T04:46:38;4.45;;;2.65;;
76636;SDS011;65532;52.124;5.480;2023-04-22T04:49:05;4.68;;;3.33;;
76636;SDS011;65532;52.124;5.480;2023-04-22T04:51:41;4.43;;;2.85;;
76636;SDS011;65532;52.124;5.480;2023-04-22T04:54:08;5.45;;;2.63;;
76636;SDS011;65532;52.124;5.480;2023-04-22T04:56:37;7.15;;;3.25;;
76636;SDS011;65532;52.124;5.480;2023-04-22T04:59:05;4.47;;;2.55;;
76636;SDS011;65532;52.124;5.480;2023-04-22T05:01:32;5.35;;;3.47;;
76636;SDS011;65532;52.124;5.480;2023-04-22T05:04:04;4.00;;;2.30;;
76636;SDS011;65532;52.124;5.480;2023-04-22T05:06:31;6.05;;;4.00;;
76636;SDS011;65532;52.124;5.480;2023-04-22T05:09:02;5.00;;;2.72;;
76636;SDS011;65532;52.124;5.480;2023-04-22T05:11:29;4.65;;;2.75;;
76636;SDS011;65532;52.124;5.480;2023-04-22T05:13:56;8.02;;;3.17;;
76636;SDS011;65532;52.124;5.480;2023-04-22T05:16:28;7.55;;;4.53;;
76636;SDS011;65532;52.124;5.480;2023-04-22T05:18:55;3.30;;;2.10;;
76636;SDS011;65532;52.124;5.480;2023-04-22T05:21:22;5.60;;;2.65;;
76636;SDS011;65532;52.124;5.480;2023-04-22T05:23:48;4.20;;;2.40;;
76636;SDS011;65532;52.124;5.480;2023-04-22T05:26:15;5.63;;;2.83;;
76636;SDS011;65532;52.124;5.480;2023-04-22T05:28:44;6.93;;;2.55;;
76636;SDS011;65532;52.124;5.480;2023-04-22T05:31:11;5.30;;;3.53;;
76636;SDS011;65532;52.124;5.480;2023-04-22T05:33:37;4.88;;;3.67;;
76636;SDS011;65532;52.124;5.480;2023-04-22T05:36:04;5.43;;;2.47;;
76636;SDS011;65532;52.124;5.480;2023-04-22T05:38:31;4.53;;;3.90;;
76636;SDS011;65532;52.124;5.480;2023-04-22T05:40:58;6.22;;;3.53;;
76636;SDS011;65532;52.124;5.480;2023-04-22T05:43:25;5.00;;;2.55;;
76636;SDS011;65532;52.124;5.480;2023-04-22T05:45:58;5.70;;;4.22;;
76636;SDS011;65532;52.124;5.480;2023-04-22T05:48:25;4.95;;;2.80;;
76636;SDS011;65532;52.124;5.480;2023-04-22T05:51:01;4.82;;;2.78;;
76636;SDS011;65532;52.124;5.480;2023-04-22T05:53:28;4.47;;;2.55;;
76636;SDS011;65532;52.124;5.480;2023-04-22T05:55:57;4.60;;;2.75;;
76636;SDS011;65532;52.124;5.480;2023-04-22T05:58:24;4.60;;;2.15;;
76636;SDS011;65532;52.124;5.480;2023-04-22T06:00:52;5.07;;;3.55;;
76636;SDS011;65532;52.124;5.480;2023-04-22T06:03:38;5.40;;;3.55;;
76636;SDS011;65532;52.124;5.480;2023-04-22T06:06:04;5.03;;;3.13;;
76636;SDS011;65532;52.124;5.480;2023-04-22T06:08:31;4.72;;;3.38;;
76636;SDS011;65532;52.124;5.480;2023-04-22T06:10:58;5.85;;;3.50;;
76636;SDS011;65532;52.124;5.480;2023-04-22T06:13:27;6.85;;;2.83;;
76636;SDS011;65532;52.124;5.480;2023-04-22T06:15:54;7.47;;;3.92;;
76636;SDS011;65532;52.124;5.480;2023-04-22T06:18:20;6.80;;;3.10;;
76636;SDS011;65532;52.124;5.480;2023-04-22T06:20:47;6.20;;;4.30;;
76636;SDS011;65532;52.124;5.480;2023-04-22T06:23:14;7.78;;;3.78;;
76636;SDS011;65532;52.124;5.480;2023-04-22T06:25:40;5.75;;;4.45;;
76636;SDS011;65532;52.124;5.480;2023-04-22T06:28:07;7.63;;;4.10;;
76636;SDS011;65532;52.124;5.480;2023-04-22T06:30:35;6.88;;;3.97;;
76636;SDS011;65532;52.124;5.480;2023-04-22T06:33:01;7.88;;;5.13;;
76636;SDS011;65532;52.124;5.480;2023-04-22T06:35:28;8.40;;;4.80;;
76636;SDS011;65532;52.124;5.480;2023-04-22T06:37:54;11.10;;;5.47;;
76636;SDS011;65532;52.124;5.480;2023-04-22T06:40:25;13.88;;;7.25;;
76636;SDS011;65532;52.124;5.480;2023-04-22T06:43:18;14.35;;;7.95;;
76636;SDS011;65532;52.124;5.480;2023-04-22T06:46:04;12.95;;;7.63;;
76636;SDS011;65532;52.124;5.480;2023-04-22T06:48:51;14.80;;;8.63;;
76636;SDS011;65532;52.124;5.480;2023-04-22T06:51:49;17.00;;;8.65;;
76636;SDS011;65532;52.124;5.480;2023-04-22T06:54:16;14.10;;;8.73;;
76636;SDS011;65532;52.124;5.480;2023-04-22T06:56:42;14.10;;;8.05;;
76636;SDS011;65532;52.124;5.480;2023-04-22T06:59:09;17.17;;;9.60;;
76636;SDS011;65532;52.124;5.480;2023-04-22T07:01:35;20.58;;;9.93;;
76636;SDS011;65532;52.124;5.480;2023-04-22T07:04:02;19.83;;;10.18;;
76636;SDS011;65532;52.124;5.480;2023-04-22T07:06:28;16.95;;;8.98;;
76636;SDS011;65532;52.124;5.480;2023-04-22T07:08:55;17.27;;;8.68;;
76636;SDS011;65532;52.124;5.480;2023-04-22T07:11:22;15.32;;;10.32;;
76636;SDS011;65532;52.124;5.480;2023-04-22T07:14:07;24.08;;;12.13;;
76636;SDS011;65532;52.124;5.480;2023-04-22T07:16:33;17.77;;;8.75;;
76636;SDS011;65532;52.124;5.480;2023-04-22T07:19:00;17.40;;;9.35;;
76636;SDS011;65532;52.124;5.480;2023-04-22T07:21:26;20.65;;;11.32;;
76636;SDS011;65532;52.124;5.480;2023-04-22T07:23:53;19.25;;;10.30;;
76636;SDS011;65532;52.124;5.480;2023-04-22T07:26:19;17.05;;;9.18;;
76636;SDS011;65532;52.124;5.480;2023-04-22T07:28:46;16.25;;;9.25;;
76636;SDS011;65532;52.124;5.480;2023-04-22T07:31:13;14.25;;;7.43;;
76636;SDS011;65532;52.124;5.480;2023-04-22T07:33:39;12.65;;;7.07;;
76636;SDS011;65532;52.124;5.480;2023-04-22T07:36:06;12.10;;;6.70;;
76636;SDS011;65532;52.124;5.480;2023-04-22T07:38:33;17.70;;;9.90;;
76636;SDS011;65532;52.124;5.480;2023-04-22T07:40:59;20.33;;;10.73;;
76636;SDS011;65532;52.124;5.480;2023-04-22T07:43:26;17.55;;;9.93;;
76636;SDS011;65532;52.124;5.480;2023-04-22T07:45:52;20.27;;;10.65;;
76636;SDS011;65532;52.124;5.480;2023-04-22T07:48:19;51.72;;;30.00;;
76636;SDS011;65532;52.124;5.480;2023-04-22T07:50:45;41.90;;;28.33;;
76636;SDS011;65532;52.124;5.480;2023-04-22T07:53:12;27.92;;;18.55;;
76636;SDS011;65532;52.124;5.480;2023-04-22T07:55:40;69.25;;;37.33;;
76636;SDS011;65532;52.124;5.480;2023-04-22T07:58:06;20.85;;;13.00;;
76636;SDS011;65532;52.124;5.480;2023-04-22T08:00:33;52.80;;;33.30;;
76636;SDS011;65532;52.124;5.480;2023-04-22T08:03:01;21.02;;;12.18;;
76636;SDS011;65532;52.124;5.480;2023-04-22T08:05:28;31.10;;;19.30;;
76636;SDS011;65532;52.124;5.480;2023-04-22T08:07:55;26.65;;;19.38;;
76636;SDS011;65532;52.124;5.480;2023-04-22T08:10:21;28.10;;;14.75;;
76636;SDS011;65532;52.124;5.480;2023-04-22T08:12:48;19.08;;;12.23;;
76636;SDS011;65532;52.124;5.480;2023-04-22T08:15:15;16.67;;;9.88;;
76636;SDS011;65532;52.124;5.480;2023-04-22T08:17:41;15.40;;;9.82;;
76636;SDS011;65532;52.124;5.480;2023-04-22T08:20:08;15.50;;;10.82;;
76636;SDS011;65532;52.124;5.480;2023-04-22T08:22:35;16.92;;;8.57;;
76636;SDS011;65532;52.124;5.480;2023-04-22T08:25:02;15.05;;;9.63;;
76636;SDS011;65532;52.124;5.480;2023-04-22T08:27:28;21.25;;;15.82;;
76636;SDS011;65532;52.124;5.480;2023-04-22T08:29:55;14.45;;;8.18;;
76636;SDS011;65532;52.124;5.480;2023-04-22T08:32:21;15.45;;;10.40;;
76636;SDS011;65532;52.124;5.480;2023-04-22T08:34:51;18.42;;;12.75;;
76636;SDS011;65532;52.124;5.480;2023-04-22T08:37:22;16.75;;;10.80;;
76636;SDS011;65532;52.124;5.480;2023-04-22T08:39:50;14.35;;;9.32;;
76636;SDS011;65532;52.124;5.480;2023-04-22T08:42:18;16.25;;;9.80;;
76636;SDS011;65532;52.124;5.480;2023-04-22T08:44:45;12.25;;;8.30;;
76636;SDS011;65532;52.124;5.480;2023-04-22T08:47:12;11.10;;;6.75;;
76636;SDS011;65532;52.124;5.480;2023-04-22T08:49:40;15.23;;;9.32;;
76636;SDS011;65532;52.124;5.480;2023-04-22T08:52:07;13.00;;;8.52;;
76636;SDS011;65532;52.124;5.480;2023-04-22T08:54:34;11.02;;;6.15;;
76636;SDS011;65532;52.124;5.480;2023-04-22T08:57:02;13.32;;;6.90;;
76636;SDS011;65532;52.124;5.480;2023-04-22T08:59:30;28.23;;;17.23;;
76636;SDS011;65532;52.124;5.480;2023-04-22T09:01:57;13.07;;;9.18;;
76636;SDS011;65532;52.124;5.480;2023-04-22T09:04:24;12.13;;;7.82;;
76636;SDS011;65532;52.124;5.480;2023-04-22T09:06:50;11.77;;;6.88;;
76636;SDS011;65532;52.124;5.480;2023-04-22T09:09:18;11.52;;;6.45;;
76636;SDS011;65532;52.124;5.480;2023-04-22T09:11:45;10.73;;;5.43;;
76636;SDS011;65532;52.124;5.480;2023-04-22T09:14:11;10.40;;;6.25;;
76636;SDS011;65532;52.124;5.480;2023-04-22T09:16:41;11.38;;;8.00;;
76636;SDS011;65532;52.124;5.480;2023-04-22T09:19:15;11.82;;;7.65;;
76636;SDS011;65532;52.124;5.480;2023-04-22T09:21:41;15.45;;;11.23;;
76636;SDS011;65532;52.124;5.480;2023-04-22T09:24:09;13.75;;;9.20;;
76636;SDS011;65532;52.124;5.480;2023-04-22T09:26:41;24.45;;;18.67;;
76636;SDS011;65532;52.124;5.480;2023-04-22T09:29:12;14.43;;;8.65;;
76636;SDS011;65532;52.124;5.480;2023-04-22T09:31:39;10.35;;;7.13;;
76636;SDS011;65532;52.124;5.480;2023-04-22T09:34:06;12.38;;;7.70;;
76636;SDS011;65532;52.124;5.480;2023-04-22T09:36:33;19.52;;;12.75;;
76636;SDS011;65532;52.124;5.480;2023-04-22T09:39:01;16.00;;;10.80;;
76636;SDS011;65532;52.124;5.480;2023-04-22T09:41:34;15.18;;;9.32;;
76636;SDS011;65532;52.124;5.480;2023-04-22T09:44:02;17.35;;;9.40;;
76636;SDS011;65532;52.124;5.480;2023-04-22T09:46:29;14.90;;;10.60;;
76636;SDS011;65532;52.124;5.480;2023-04-22T09:48:58;11.50;;;7.53;;
76636;SDS011;65532;52.124;5.480;2023-04-22T09:51:25;12.02;;;7.78;;
76636;SDS011;65532;52.124;5.480;2023-04-22T09:53:57;13.30;;;9.60;;
76636;SDS011;65532;52.124;5.480;2023-04-22T09:59:16;10.93;;;6.10;;
76636;SDS011;65532;52.124;5.480;2023-04-22T10:01:49;12.88;;;7.45;;
76636;SDS011;65532;52.124;5.480;2023-04-22T10:04:17;11.75;;;6.15;;
76636;SDS011;65532;52.124;5.480;2023-04-22T10:06:47;14.82;;;7.47;;
76636;SDS011;65532;52.124;5.480;2023-04-22T10:09:18;12.93;;;6.75;;
76636;SDS011;65532;52.124;5.480;2023-04-22T10:11:46;11.48;;;6.22;;
76636;SDS011;65532;52.124;5.480;2023-04-22T10:14:15;11.50;;;6.53;;
76636;SDS011;65532;52.124;5.480;2023-04-22T10:16:42;11.57;;;7.47;;
76636;SDS011;65532;52.124;5.480;2023-04-22T10:19:13;14.00;;;7.97;;
76636;SDS011;65532;52.124;5.480;2023-04-22T10:21:42;11.50;;;7.38;;
76636;SDS011;65532;52.124;5.480;2023-04-22T10:24:17;10.00;;;6.03;;
76636;SDS011;65532;52.124;5.480;2023-04-22T10:26:49;10.57;;;5.82;;
76636;SDS011;65532;52.124;5.480;2023-04-22T10:29:22;11.18;;;6.03;;
76636;SDS011;65532;52.124;5.480;2023-04-22T10:34:49;10.40;;;7.47;;
76636;SDS011;65532;52.124;5.480;2023-04-22T10:37:31;11.75;;;7.20;;
76636;SDS011;65532;52.124;5.480;2023-04-22T10:40:06;9.68;;;6.03;;
76636;SDS011;65532;52.124;5.480;2023-04-22T10:42:34;11.20;;;6.05;;
76636;SDS011;65532;52.124;5.480;2023-04-22T10:45:01;11.73;;;5.35;;
76636;SDS011;65532;52.124;5.480;2023-04-22T10:47:30;10.05;;;6.22;;
76636;SDS011;65532;52.124;5.480;2023-04-22T10:50:18;12.10;;;6.65;;
76636;SDS011;65532;52.124;5.480;2023-04-22T10:52:50;7.22;;;4.38;;
76636;SDS011;65532;52.124;5.480;2023-04-22T10:55:20;9.45;;;5.10;;
76636;SDS011;65532;52.124;5.480;2023-04-22T10:57:47;11.45;;;6.05;;
76636;SDS011;65532;52.124;5.480;2023-04-22T11:00:29;10.30;;;4.93;;
76636;SDS011;65532;52.124;5.480;2023-04-22T11:05:39;8.85;;;4.30;;
76636;SDS011;65532;52.124;5.480;2023-04-22T11:08:10;12.77;;;5.85;;
76636;SDS011;65532;52.124;5.480;2023-04-22T11:10:44;10.30;;;5.88;;
76636;SDS011;65532;52.124;5.480;2023-04-22T11:13:13;9.55;;;5.45;;
76636;SDS011;65532;52.124;5.480;2023-04-22T11:15:42;12.15;;;5.63;;
76636;SDS011;65532;52.124;5.480;2023-04-22T11:18:13;11.48;;;8.20;;
76636;SDS011;65532;52.124;5.480;2023-04-22T11:20:42;8.85;;;5.88;;
76636;SDS011;65532;52.124;5.480;2023-04-22T11:23:09;15.60;;;7.47;;
76636;SDS011;65532;52.124;5.480;2023-04-22T11:25:35;9.98;;;6.70;;
76636;SDS011;65532;52.124;5.480;2023-04-22T11:28:02;10.27;;;6.55;;
76636;SDS011;65532;52.124;5.480;2023-04-22T11:30:28;9.70;;;6.22;;
76636;SDS011;65532;52.124;5.480;2023-04-22T11:32:57;11.02;;;6.60;;
76636;SDS011;65532;52.124;5.480;2023-04-22T11:35:27;11.85;;;6.05;;
76636;SDS011;65532;52.124;5.480;2023-04-22T11:40:25;12.02;;;7.25;;
76636;SDS011;65532;52.124;5.480;2023-04-22T11:42:59;12.65;;;8.00;;
76636;SDS011;65532;52.124;5.480;2023-04-22T11:45:29;11.38;;;7.15;;
76636;SDS011;65532;52.124;5.480;2023-04-22T11:47:57;12.32;;;7.72;;
76636;SDS011;65532;52.124;5.480;2023-04-22T11:50:25;12.77;;;8.80;;
76636;SDS011;65532;52.124;5.480;2023-04-22T11:52:53;13.95;;;7.72;;
76636;SDS011;65532;52.124;5.480;2023-04-22T11:57:52;14.98;;;8.07;;
76636;SDS011;65532;52.124;5.480;2023-04-22T12:00:20;14.30;;;8.68;;
76636;SDS011;65532;52.124;5.480;2023-04-22T12:02:53;14.70;;;8.32;;
76636;SDS011;65532;52.124;5.480;2023-04-22T12:05:34;16.33;;;9.00;;
76636;SDS011;65532;52.124;5.480;2023-04-22T12:08:03;13.70;;;7.43;;
76636;SDS011;65532;52.124;5.480;2023-04-22T12:12:59;12.40;;;6.45;;
76636;SDS011;65532;52.124;5.480;2023-04-22T12:15:35;14.15;;;8.50;;
76636;SDS011;65532;52.124;5.480;2023-04-22T12:18:02;13.27;;;7.35;;
76636;SDS011;65532;52.124;5.480;2023-04-22T12:20:33;13.90;;;9.23;;
76636;SDS011;65532;52.124;5.480;2023-04-22T12:23:04;12.52;;;7.43;;
76636;SDS011;65532;52.124;5.480;2023-04-22T12:25:31;12.38;;;8.30;;
76636;SDS011;65532;52.124;5.480;2023-04-22T12:28:00;13.02;;;8.85;;
76636;SDS011;65532;52.124;5.480;2023-04-22T12:30:27;13.65;;;8.57;;
76636;SDS011;65532;52.124;5.480;2023-04-22T12:32:53;12.85;;;6.85;;
76636;SDS011;65532;52.124;5.480;2023-04-22T12:35:20;13.00;;;7.40;;
76636;SDS011;65532;52.124;5.480;2023-04-22T12:37:46;11.27;;;7.60;;
76636;SDS011;65532;52.124;5.480;2023-04-22T12:40:15;11.65;;;6.70;;
76636;SDS011;65532;52.124;5.480;2023-04-22T12:42:43;12.52;;;9.48;;
76636;SDS011;65532;52.124;5.480;2023-04-22T12:45:09;13.70;;;8.30;;
76636;SDS011;65532;52.124;5.480;2023-04-22T12:47:36;12.18;;;7.35;;
76636;SDS011;65532;52.124;5.480;2023-04-22T12:50:03;14.57;;;7.32;;
76636;SDS011;65532;52.124;5.480;2023-04-22T12:52:32;13.63;;;8.25;;
76636;SDS011;65532;52.124;5.480;2023-04-22T12:54:59;15.75;;;7.57;;
76636;SDS011;65532;52.124;5.480;2023-04-22T12:57:26;11.68;;;7.55;;
76636;SDS011;65532;52.124;5.480;2023-04-22T12:59:53;11.00;;;7.00;;
76636;SDS011;65532;52.124;5.480;2023-04-22T13:02:19;11.27;;;6.13;;
76636;SDS011;65532;52.124;5.480;2023-04-22T13:04:46;11.65;;;6.95;;
76636;SDS011;65532;52.124;5.480;2023-04-22T13:07:12;13.13;;;6.60;;
76636;SDS011;65532;52.124;5.480;2023-04-22T13:09:40;15.07;;;7.38;;
76636;SDS011;65532;52.124;5.480;2023-04-22T13:12:07;11.90;;;5.47;;
76636;SDS011;65532;52.124;5.480;2023-04-22T13:14:33;10.02;;;5.97;;
76636;SDS011;65532;52.124;5.480;2023-04-22T13:17:00;10.15;;;6.07;;
76636;SDS011;65532;52.124;5.480;2023-04-22T13:19:26;12.02;;;6.43;;
76636;SDS011;65532;52.124;5.480;2023-04-22T13:21:54;12.05;;;6.82;;
76636;SDS011;65532;52.124;5.480;2023-04-22T13:24:21;12.43;;;6.78;;
76636;SDS011;65532;52.124;5.480;2023-04-22T13:26:47;13.80;;;8.38;;
76636;SDS011;65532;52.124;5.480;2023-04-22T13:29:13;13.95;;;6.97;;
76636;SDS011;65532;52.124;5.480;2023-04-22T13:31:41;13.02;;;6.57;;
76636;SDS011;65532;52.124;5.480;2023-04-22T13:34:09;13.73;;;8.05;;
76636;SDS011;65532;52.124;5.480;2023-04-22T13:36:36;12.45;;;7.55;;
76636;SDS011;65532;52.124;5.480;2023-04-22T13:39:03;15.02;;;7.32;;
76636;SDS011;65532;52.124;5.480;2023-04-22T13:41:29;16.33;;;10.40;;
76636;SDS011;65532;52.124;5.480;2023-04-22T13:43:56;22.33;;;10.98;;
76636;SDS011;65532;52.124;5.480;2023-04-22T13:46:24;14.60;;;8.25;;
76636;SDS011;65532;52.124;5.480;2023-04-22T13:48:52;18.23;;;9.30;;
76636;SDS011;65532;52.124;5.480;2023-04-22T13:51:19;12.57;;;7.22;;
76636;SDS011;65532;52.124;5.480;2023-04-22T13:53:46;16.17;;;9.63;;
76636;SDS011;65532;52.124;5.480;2023-04-22T13:56:12;15.02;;;9.02;;
76636;SDS011;65532;52.124;5.480;2023-04-22T13:58:39;13.02;;;9.02;;
76636;SDS011;65532;52.124;5.480;2023-04-22T14:01:06;16.33;;;9.23;;
76636;SDS011;65532;52.124;5.480;2023-04-22T14:03:33;11.70;;;6.85;;
76636;SDS011;65532;52.124;5.480;2023-04-22T14:06:00;13.02;;;7.47;;
76636;SDS011;65532;52.124;5.480;2023-04-22T14:08:29;13.05;;;8.70;;
76636;SDS011;65532;52.124;5.480;2023-04-22T14:10:55;14.82;;;9.13;;
76636;SDS011;65532;52.124;5.480;2023-04-22T14:13:27;12.85;;;9.23;;
76636;SDS011;65532;52.124;5.480;2023-04-22T14:15:53;16.20;;;9.68;;
76636;SDS011;65532;52.124;5.480;2023-04-22T14:18:20;16.10;;;9.70;;
76636;SDS011;65532;52.124;5.480;2023-04-22T14:20:52;14.60;;;10.18;;
76636;SDS011;65532;52.124;5.480;2023-04-22T14:23:18;13.68;;;7.90;;
76636;SDS011;65532;52.124;5.480;2023-04-22T14:25:45;17.35;;;10.55;;
76636;SDS011;65532;52.124;5.480;2023-04-22T14:28:15;15.02;;;10.48;;
76636;SDS011;65532;52.124;5.480;2023-04-22T14:30:42;16.63;;;10.20;;
76636;SDS011;65532;52.124;5.480;2023-04-22T14:33:09;17.38;;;11.10;;
76636;SDS011;65532;52.124;5.480;2023-04-22T14:35:36;15.52;;;9.25;;
76636;SDS011;65532;52.124;5.480;2023-04-22T14:38:03;14.90;;;8.45;;
76636;SDS011;65532;52.124;5.480;2023-04-22T14:40:31;14.23;;;8.10;;
76636;SDS011;65532;52.124;5.480;2023-04-22T14:42:58;15.98;;;8.82;;
76636;SDS011;65532;52.124;5.480;2023-04-22T14:45:27;12.40;;;7.72;;
76636;SDS011;65532;52.124;5.480;2023-04-22T14:47:55;15.05;;;8.45;;
76636;SDS011;65532;52.124;5.480;2023-04-22T14:50:22;15.40;;;8.57;;
76636;SDS011;65532;52.124;5.480;2023-04-22T14:52:49;15.60;;;8.70;;
76636;SDS011;65532;52.124;5.480;2023-04-22T14:55:16;16.77;;;8.63;;
76636;SDS011;65532;52.124;5.480;2023-04-22T14:57:49;16.38;;;10.82;;
76636;SDS011;65532;52.124;5.480;2023-04-22T15:00:18;13.73;;;7.95;;
76636;SDS011;65532;52.124;5.480;2023-04-22T15:02:44;14.45;;;8.13;;